sensor_id;sensor_type;location;lat;lon;timestamp;P1;durP1;ratioP1;P2;durP2;ratioP2
8319;SDS011;4197;42.130;24.746;2023-03-23T00:01:17;31.13;;;20.37;;
8319;SDS011;4197;42.130;24.746;2023-03-23T00:03:46;31.63;;;21.83;;
8319;SDS011;4197;42.130;24.746;2023-03-23T00:06:15;30.67;;;20.63;;
8319;SDS011;4197;42.130;24.746;2023-03-23T00:08:43;31.40;;;20.37;;
8319;SDS011;4197;42.130;24.746;2023-03-23T00:11:12;27.80;;;20.00;;
8319;SDS011;4197;42.130;24.746;2023-03-23T00:13:41;32.63;;;21.23;;
8319;SDS011;4197;42.130;24.746;2023-03-23T00:16:10;29.27;;;20.63;;
8319;SDS011;4197;42.130;24.746;2023-03-23T00:18:44;31.73;;;21.63;;
8319;SDS011;4197;42.130;24.746;2023-03-23T00:21:11;34.10;;;22.20;;
8319;SDS011;4197;42.130;24.746;2023-03-23T00:23:38;30.90;;;21.27;;
8319;SDS011;4197;42.130;24.746;2023-03-23T00:26:06;29.97;;;19.73;;
8319;SDS011;4197;42.130;24.746;2023-03-23T00:28:33;28.80;;;20.27;;
8319;SDS011;4197;42.130;24.746;2023-03-23T00:31:01;32.10;;;20.13;;
8319;SDS011;4197;42.130;24.746;2023-03-23T00:33:33;30.13;;;20.30;;
8319;SDS011;4197;42.130;24.746;2023-03-23T00:36:04;33.50;;;22.10;;
8319;SDS011;4197;42.130;24.746;2023-03-23T00:38:31;32.43;;;20.37;;
8319;SDS011;4197;42.130;24.746;2023-03-23T00:40:58;28.77;;;19.93;;
8319;SDS011;4197;42.130;24.746;2023-03-23T00:43:27;30.97;;;21.07;;
8319;SDS011;4197;42.130;24.746;2023-03-23T00:45:56;33.43;;;22.17;;
8319;SDS011;4197;42.130;24.746;2023-03-23T00:48:26;31.73;;;20.90;;
8319;SDS011;4197;42.130;24.746;2023-03-23T00:50:56;31.57;;;21.80;;
8319;SDS011;4197;42.130;24.746;2023-03-23T00:53:23;32.70;;;21.73;;
8319;SDS011;4197;42.130;24.746;2023-03-23T00:55:50;32.33;;;21.40;;
8319;SDS011;4197;42.130;24.746;2023-03-23T00:58:17;30.00;;;21.57;;
8319;SDS011;4197;42.130;24.746;2023-03-23T01:00:44;36.23;;;23.87;;
8319;SDS011;4197;42.130;24.746;2023-03-23T01:03:11;35.03;;;23.10;;
8319;SDS011;4197;42.130;24.746;2023-03-23T01:05:43;32.20;;;22.73;;
8319;SDS011;4197;42.130;24.746;2023-03-23T01:08:13;37.17;;;23.03;;
8319;SDS011;4197;42.130;24.746;2023-03-23T01:10:41;33.17;;;22.03;;
8319;SDS011;4197;42.130;24.746;2023-03-23T01:13:08;33.03;;;21.93;;
8319;SDS011;4197;42.130;24.746;2023-03-23T01:15:35;35.13;;;21.53;;
8319;SDS011;4197;42.130;24.746;2023-03-23T01:18:03;38.57;;;21.43;;
8319;SDS011;4197;42.130;24.746;2023-03-23T01:20:30;31.47;;;20.63;;
8319;SDS011;4197;42.130;24.746;2023-03-23T01:22:58;30.23;;;20.93;;
8319;SDS011;4197;42.130;24.746;2023-03-23T01:25:28;30.37;;;21.67;;
8319;SDS011;4197;42.130;24.746;2023-03-23T01:27:56;33.10;;;21.67;;
8319;SDS011;4197;42.130;24.746;2023-03-23T01:30:24;29.90;;;20.90;;
8319;SDS011;4197;42.130;24.746;2023-03-23T01:32:53;35.27;;;23.40;;
8319;SDS011;4197;42.130;24.746;2023-03-23T01:35:21;34.43;;;23.27;;
8319;SDS011;4197;42.130;24.746;2023-03-23T01:37:48;38.37;;;26.07;;
8319;SDS011;4197;42.130;24.746;2023-03-23T01:40:15;34.83;;;24.43;;
8319;SDS011;4197;42.130;24.746;2023-03-23T01:42:44;39.47;;;26.37;;
8319;SDS011;4197;42.130;24.746;2023-03-23T01:48:01;42.50;;;26.77;;
8319;SDS011;4197;42.130;24.746;2023-03-23T01:50:35;35.90;;;26.13;;
8319;SDS011;4197;42.130;24.746;2023-03-23T01:53:07;39.50;;;26.97;;
8319;SDS011;4197;42.130;24.746;2023-03-23T01:55:36;40.97;;;27.23;;
8319;SDS011;4197;42.130;24.746;2023-03-23T01:58:07;38.70;;;27.53;;
8319;SDS011;4197;42.130;24.746;2023-03-23T02:00:36;43.83;;;28.03;;
8319;SDS011;4197;42.130;24.746;2023-03-23T02:03:05;39.27;;;26.10;;
8319;SDS011;4197;42.130;24.746;2023-03-23T02:05:38;37.17;;;24.30;;
8319;SDS011;4197;42.130;24.746;2023-03-23T02:08:06;37.83;;;26.00;;
8319;SDS011;4197;42.130;24.746;2023-03-23T02:10:36;38.43;;;27.30;;
8319;SDS011;4197;42.130;24.746;2023-03-23T02:13:04;37.70;;;26.87;;
8319;SDS011;4197;42.130;24.746;2023-03-23T02:15:37;37.90;;;25.30;;
8319;SDS011;4197;42.130;24.746;2023-03-23T02:18:28;36.93;;;26.43;;
8319;SDS011;4197;42.130;24.746;2023-03-23T02:24:29;30.93;;;21.20;;
8319;SDS011;4197;42.130;24.746;2023-03-23T02:27:07;32.13;;;22.90;;
8319;SDS011;4197;42.130;24.746;2023-03-23T02:29:46;34.27;;;23.80;;
8319;SDS011;4197;42.130;24.746;2023-03-23T02:35:28;34.77;;;22.80;;
8319;SDS011;4197;42.130;24.746;2023-03-23T02:38:01;37.17;;;23.57;;
8319;SDS011;4197;42.130;24.746;2023-03-23T02:40:33;35.63;;;22.90;;
8319;SDS011;4197;42.130;24.746;2023-03-23T02:43:06;34.27;;;22.87;;
8319;SDS011;4197;42.130;24.746;2023-03-23T02:45:34;34.70;;;23.17;;
8319;SDS011;4197;42.130;24.746;2023-03-23T02:48:04;34.03;;;23.80;;
8319;SDS011;4197;42.130;24.746;2023-03-23T02:50:34;38.77;;;25.97;;
8319;SDS011;4197;42.130;24.746;2023-03-23T02:53:03;34.93;;;23.83;;
8319;SDS011;4197;42.130;24.746;2023-03-23T02:55:36;38.53;;;26.03;;
8319;SDS011;4197;42.130;24.746;2023-03-23T02:58:07;37.33;;;26.03;;
8319;SDS011;4197;42.130;24.746;2023-03-23T03:00:35;38.23;;;23.73;;
8319;SDS011;4197;42.130;24.746;2023-03-23T03:03:03;38.80;;;25.13;;
8319;SDS011;4197;42.130;24.746;2023-03-23T03:05:35;45.10;;;24.90;;
8319;SDS011;4197;42.130;24.746;2023-03-23T03:08:13;43.00;;;26.23;;
8319;SDS011;4197;42.130;24.746;2023-03-23T03:10:47;48.10;;;27.17;;
8319;SDS011;4197;42.130;24.746;2023-03-23T03:13:22;40.03;;;24.40;;
8319;SDS011;4197;42.130;24.746;2023-03-23T03:15:55;38.90;;;21.83;;
8319;SDS011;4197;42.130;24.746;2023-03-23T03:18:27;37.50;;;22.33;;
8319;SDS011;4197;42.130;24.746;2023-03-23T03:20:59;36.50;;;21.03;;
8319;SDS011;4197;42.130;24.746;2023-03-23T03:23:29;35.60;;;22.63;;
8319;SDS011;4197;42.130;24.746;2023-03-23T03:25:59;39.63;;;21.70;;
8319;SDS011;4197;42.130;24.746;2023-03-23T03:28:30;36.63;;;20.90;;
8319;SDS011;4197;42.130;24.746;2023-03-23T03:31:00;30.53;;;20.67;;
8319;SDS011;4197;42.130;24.746;2023-03-23T03:33:30;32.70;;;21.80;;
8319;SDS011;4197;42.130;24.746;2023-03-23T03:36:00;33.03;;;21.17;;
8319;SDS011;4197;42.130;24.746;2023-03-23T03:38:40;32.97;;;20.87;;
8319;SDS011;4197;42.130;24.746;2023-03-23T03:41:08;32.20;;;21.47;;
8319;SDS011;4197;42.130;24.746;2023-03-23T03:43:35;35.10;;;21.33;;
8319;SDS011;4197;42.130;24.746;2023-03-23T03:46:02;35.17;;;22.37;;
8319;SDS011;4197;42.130;24.746;2023-03-23T03:48:29;39.67;;;23.53;;
8319;SDS011;4197;42.130;24.746;2023-03-23T03:50:56;37.43;;;23.20;;
8319;SDS011;4197;42.130;24.746;2023-03-23T03:53:27;40.73;;;23.50;;
8319;SDS011;4197;42.130;24.746;2023-03-23T03:55:54;41.77;;;24.77;;
8319;SDS011;4197;42.130;24.746;2023-03-23T03:58:25;40.23;;;22.93;;
8319;SDS011;4197;42.130;24.746;2023-03-23T04:00:57;40.17;;;24.27;;
8319;SDS011;4197;42.130;24.746;2023-03-23T04:03:25;35.87;;;23.23;;
8319;SDS011;4197;42.130;24.746;2023-03-23T04:05:52;39.30;;;23.07;;
8319;SDS011;4197;42.130;24.746;2023-03-23T04:08:20;36.57;;;22.80;;
8319;SDS011;4197;42.130;24.746;2023-03-23T04:10:49;34.90;;;22.53;;
8319;SDS011;4197;42.130;24.746;2023-03-23T04:13:17;43.87;;;23.10;;
8319;SDS011;4197;42.130;24.746;2023-03-23T04:15:44;35.50;;;20.87;;
8319;SDS011;4197;42.130;24.746;2023-03-23T04:18:12;37.00;;;22.73;;
8319;SDS011;4197;42.130;24.746;2023-03-23T04:20:40;36.57;;;22.50;;
8319;SDS011;4197;42.130;24.746;2023-03-23T04:23:08;33.20;;;22.27;;
8319;SDS011;4197;42.130;24.746;2023-03-23T04:25:35;36.20;;;21.83;;
8319;SDS011;4197;42.130;24.746;2023-03-23T04:28:04;37.37;;;22.90;;
8319;SDS011;4197;42.130;24.746;2023-03-23T04:30:31;39.83;;;29.10;;
8319;SDS011;4197;42.130;24.746;2023-03-23T04:32:58;35.07;;;24.40;;
8319;SDS011;4197;42.130;24.746;2023-03-23T04:35:27;38.70;;;24.93;;
8319;SDS011;4197;42.130;24.746;2023-03-23T04:37:59;37.90;;;24.20;;
8319;SDS011;4197;42.130;24.746;2023-03-23T04:40:26;38.83;;;23.63;;
8319;SDS011;4197;42.130;24.746;2023-03-23T04:42:53;41.13;;;24.93;;
8319;SDS011;4197;42.130;24.746;2023-03-23T04:45:24;36.83;;;23.47;;
8319;SDS011;4197;42.130;24.746;2023-03-23T04:47:51;38.30;;;23.90;;
8319;SDS011;4197;42.130;24.746;2023-03-23T04:50:23;36.27;;;23.13;;
8319;SDS011;4197;42.130;24.746;2023-03-23T04:52:53;38.00;;;22.80;;
8319;SDS011;4197;42.130;24.746;2023-03-23T04:55:23;36.43;;;22.53;;
8319;SDS011;4197;42.130;24.746;2023-03-23T04:57:50;37.23;;;22.77;;
8319;SDS011;4197;42.130;24.746;2023-03-23T05:00:18;37.37;;;22.83;;
8319;SDS011;4197;42.130;24.746;2023-03-23T05:02:48;31.13;;;19.80;;
8319;SDS011;4197;42.130;24.746;2023-03-23T05:05:17;32.90;;;20.07;;
8319;SDS011;4197;42.130;24.746;2023-03-23T05:07:46;31.73;;;21.07;;
8319;SDS011;4197;42.130;24.746;2023-03-23T05:10:14;33.83;;;23.33;;
8319;SDS011;4197;42.130;24.746;2023-03-23T05:12:42;29.80;;;21.17;;
8319;SDS011;4197;42.130;24.746;2023-03-23T05:15:10;32.80;;;21.30;;
8319;SDS011;4197;42.130;24.746;2023-03-23T05:17:40;39.10;;;22.73;;
8319;SDS011;4197;42.130;24.746;2023-03-23T05:20:11;32.47;;;20.93;;
8319;SDS011;4197;42.130;24.746;2023-03-23T05:22:43;37.03;;;21.53;;
8319;SDS011;4197;42.130;24.746;2023-03-23T05:25:13;35.50;;;22.67;;
8319;SDS011;4197;42.130;24.746;2023-03-23T05:27:40;32.03;;;21.23;;
8319;SDS011;4197;42.130;24.746;2023-03-23T05:30:09;34.63;;;22.60;;
8319;SDS011;4197;42.130;24.746;2023-03-23T05:32:36;40.97;;;21.77;;
8319;SDS011;4197;42.130;24.746;2023-03-23T05:35:04;40.40;;;22.57;;
8319;SDS011;4197;42.130;24.746;2023-03-23T05:37:33;37.53;;;21.67;;
8319;SDS011;4197;42.130;24.746;2023-03-23T05:40:00;39.23;;;23.60;;
8319;SDS011;4197;42.130;24.746;2023-03-23T05:42:31;37.13;;;22.53;;
8319;SDS011;4197;42.130;24.746;2023-03-23T05:44:59;38.87;;;23.37;;
8319;SDS011;4197;42.130;24.746;2023-03-23T05:47:27;33.07;;;23.57;;
8319;SDS011;4197;42.130;24.746;2023-03-23T05:49:55;34.57;;;22.87;;
8319;SDS011;4197;42.130;24.746;2023-03-23T05:52:22;37.67;;;22.33;;
8319;SDS011;4197;42.130;24.746;2023-03-23T05:54:51;35.50;;;22.67;;
8319;SDS011;4197;42.130;24.746;2023-03-23T05:57:19;34.40;;;22.57;;
8319;SDS011;4197;42.130;24.746;2023-03-23T05:59:48;32.80;;;22.07;;
8319;SDS011;4197;42.130;24.746;2023-03-23T06:02:15;40.83;;;22.10;;
8319;SDS011;4197;42.130;24.746;2023-03-23T06:04:42;33.70;;;21.90;;
8319;SDS011;4197;42.130;24.746;2023-03-23T06:07:10;39.27;;;22.10;;
8319;SDS011;4197;42.130;24.746;2023-03-23T06:09:39;33.40;;;21.80;;
8319;SDS011;4197;42.130;24.746;2023-03-23T06:12:08;34.87;;;21.70;;
8319;SDS011;4197;42.130;24.746;2023-03-23T06:14:36;36.20;;;22.63;;
8319;SDS011;4197;42.130;24.746;2023-03-23T06:17:04;32.87;;;21.30;;
8319;SDS011;4197;42.130;24.746;2023-03-23T06:19:31;34.77;;;21.67;;
8319;SDS011;4197;42.130;24.746;2023-03-23T06:21:59;31.73;;;21.47;;
8319;SDS011;4197;42.130;24.746;2023-03-23T06:24:27;36.83;;;22.40;;
8319;SDS011;4197;42.130;24.746;2023-03-23T06:26:54;31.53;;;20.70;;
8319;SDS011;4197;42.130;24.746;2023-03-23T06:29:22;31.53;;;21.10;;
8319;SDS011;4197;42.130;24.746;2023-03-23T06:31:51;33.60;;;20.73;;
8319;SDS011;4197;42.130;24.746;2023-03-23T06:34:21;31.57;;;20.30;;
8319;SDS011;4197;42.130;24.746;2023-03-23T06:36:49;29.23;;;19.87;;
8319;SDS011;4197;42.130;24.746;2023-03-23T06:39:16;35.43;;;21.73;;
8319;SDS011;4197;42.130;24.746;2023-03-23T06:41:43;31.23;;;21.30;;
8319;SDS011;4197;42.130;24.746;2023-03-23T06:44:10;29.83;;;20.43;;
8319;SDS011;4197;42.130;24.746;2023-03-23T06:46:40;28.57;;;20.57;;
8319;SDS011;4197;42.130;24.746;2023-03-23T06:49:08;30.83;;;20.53;;
8319;SDS011;4197;42.130;24.746;2023-03-23T06:51:35;32.10;;;21.07;;
8319;SDS011;4197;42.130;24.746;2023-03-23T06:54:03;33.90;;;20.77;;
8319;SDS011;4197;42.130;24.746;2023-03-23T06:56:31;29.87;;;19.47;;
8319;SDS011;4197;42.130;24.746;2023-03-23T06:58:58;29.50;;;19.57;;
8319;SDS011;4197;42.130;24.746;2023-03-23T07:01:25;31.13;;;21.47;;
8319;SDS011;4197;42.130;24.746;2023-03-23T07:03:55;32.83;;;21.27;;
8319;SDS011;4197;42.130;24.746;2023-03-23T07:06:23;29.23;;;21.10;;
8319;SDS011;4197;42.130;24.746;2023-03-23T07:08:50;27.90;;;19.57;;
8319;SDS011;4197;42.130;24.746;2023-03-23T07:11:18;30.87;;;20.07;;
8319;SDS011;4197;42.130;24.746;2023-03-23T07:13:45;33.20;;;21.30;;
8319;SDS011;4197;42.130;24.746;2023-03-23T07:16:13;32.97;;;21.53;;
8319;SDS011;4197;42.130;24.746;2023-03-23T07:18:40;31.77;;;21.97;;
8319;SDS011;4197;42.130;24.746;2023-03-23T07:21:09;38.67;;;25.50;;
8319;SDS011;4197;42.130;24.746;2023-03-23T07:23:36;44.50;;;27.03;;
8319;SDS011;4197;42.130;24.746;2023-03-23T07:26:03;42.87;;;27.07;;
8319;SDS011;4197;42.130;24.746;2023-03-23T07:28:31;42.33;;;27.10;;
8319;SDS011;4197;42.130;24.746;2023-03-23T07:30:58;40.20;;;26.03;;
8319;SDS011;4197;42.130;24.746;2023-03-23T07:33:26;36.27;;;25.37;;
8319;SDS011;4197;42.130;24.746;2023-03-23T07:35:53;38.33;;;25.97;;
8319;SDS011;4197;42.130;24.746;2023-03-23T07:38:21;34.23;;;23.33;;
8319;SDS011;4197;42.130;24.746;2023-03-23T07:40:50;36.43;;;24.03;;
8319;SDS011;4197;42.130;24.746;2023-03-23T07:43:17;37.57;;;22.20;;
8319;SDS011;4197;42.130;24.746;2023-03-23T07:45:45;30.77;;;20.23;;
8319;SDS011;4197;42.130;24.746;2023-03-23T07:48:13;29.10;;;20.30;;
8319;SDS011;4197;42.130;24.746;2023-03-23T07:50:40;32.63;;;20.77;;
8319;SDS011;4197;42.130;24.746;2023-03-23T07:53:07;30.23;;;20.83;;
8319;SDS011;4197;42.130;24.746;2023-03-23T07:55:37;30.57;;;20.20;;
8319;SDS011;4197;42.130;24.746;2023-03-23T07:58:05;38.17;;;21.33;;
8319;SDS011;4197;42.130;24.746;2023-03-23T08:00:32;33.23;;;21.63;;
8319;SDS011;4197;42.130;24.746;2023-03-23T08:03:00;27.57;;;16.67;;
8319;SDS011;4197;42.130;24.746;2023-03-23T08:05:27;28.30;;;17.67;;
8319;SDS011;4197;42.130;24.746;2023-03-23T08:07:55;28.07;;;17.90;;
8319;SDS011;4197;42.130;24.746;2023-03-23T08:10:22;31.03;;;18.50;;
8319;SDS011;4197;42.130;24.746;2023-03-23T08:12:52;41.97;;;25.60;;
8319;SDS011;4197;42.130;24.746;2023-03-23T08:15:20;46.23;;;27.20;;
8319;SDS011;4197;42.130;24.746;2023-03-23T08:17:48;38.23;;;26.47;;
8319;SDS011;4197;42.130;24.746;2023-03-23T08:20:16;37.10;;;26.17;;
8319;SDS011;4197;42.130;24.746;2023-03-23T08:22:45;41.40;;;25.80;;
8319;SDS011;4197;42.130;24.746;2023-03-23T08:25:18;40.57;;;26.10;;
8319;SDS011;4197;42.130;24.746;2023-03-23T08:27:46;35.33;;;23.23;;
8319;SDS011;4197;42.130;24.746;2023-03-23T08:30:15;35.50;;;22.73;;
8319;SDS011;4197;42.130;24.746;2023-03-23T08:32:44;29.90;;;19.97;;
8319;SDS011;4197;42.130;24.746;2023-03-23T08:35:12;23.00;;;16.87;;
8319;SDS011;4197;42.130;24.746;2023-03-23T08:37:40;29.80;;;18.73;;
8319;SDS011;4197;42.130;24.746;2023-03-23T08:40:08;37.37;;;22.07;;
8319;SDS011;4197;42.130;24.746;2023-03-23T08:42:37;30.13;;;21.47;;
8319;SDS011;4197;42.130;24.746;2023-03-23T08:45:06;31.67;;;20.80;;
8319;SDS011;4197;42.130;24.746;2023-03-23T08:47:36;28.60;;;17.80;;
8319;SDS011;4197;42.130;24.746;2023-03-23T08:50:06;23.47;;;15.43;;
8319;SDS011;4197;42.130;24.746;2023-03-23T08:52:36;20.77;;;14.67;;
8319;SDS011;4197;42.130;24.746;2023-03-23T08:55:04;18.17;;;13.77;;
8319;SDS011;4197;42.130;24.746;2023-03-23T08:57:34;19.17;;;12.90;;
8319;SDS011;4197;42.130;24.746;2023-03-23T09:00:02;18.30;;;13.20;;
8319;SDS011;4197;42.130;24.746;2023-03-23T09:02:40;26.13;;;18.03;;
8319;SDS011;4197;42.130;24.746;2023-03-23T09:05:08;31.37;;;21.40;;
8319;SDS011;4197;42.130;24.746;2023-03-23T09:07:36;32.10;;;21.47;;
8319;SDS011;4197;42.130;24.746;2023-03-23T09:10:04;33.60;;;20.60;;
8319;SDS011;4197;42.130;24.746;2023-03-23T09:12:32;16.37;;;13.20;;
8319;SDS011;4197;42.130;24.746;2023-03-23T09:14:59;18.47;;;13.03;;
8319;SDS011;4197;42.130;24.746;2023-03-23T09:17:28;21.00;;;16.13;;
8319;SDS011;4197;42.130;24.746;2023-03-23T09:19:58;26.87;;;18.10;;
8319;SDS011;4197;42.130;24.746;2023-03-23T09:22:25;28.00;;;17.97;;
8319;SDS011;4197;42.130;24.746;2023-03-23T09:24:53;22.85;;;17.73;;
8319;SDS011;4197;42.130;24.746;2023-03-23T09:27:20;25.60;;;17.10;;
8319;SDS011;4197;42.130;24.746;2023-03-23T09:29:47;23.42;;;16.25;;
8319;SDS011;4197;42.130;24.746;2023-03-23T09:32:15;26.77;;;18.38;;
8319;SDS011;4197;42.130;24.746;2023-03-23T09:34:42;26.08;;;17.45;;
8319;SDS011;4197;42.130;24.746;2023-03-23T09:37:11;27.02;;;17.88;;
8319;SDS011;4197;42.130;24.746;2023-03-23T09:39:39;19.30;;;13.25;;
8319;SDS011;4197;42.130;24.746;2023-03-23T09:42:10;16.30;;;11.73;;
8319;SDS011;4197;42.130;24.746;2023-03-23T09:44:51;22.20;;;15.15;;
8319;SDS011;4197;42.130;24.746;2023-03-23T09:47:31;19.92;;;16.20;;
8319;SDS011;4197;42.130;24.746;2023-03-23T09:50:06;22.35;;;14.73;;
8319;SDS011;4197;42.130;24.746;2023-03-23T09:52:39;20.23;;;13.38;;
8319;SDS011;4197;42.130;24.746;2023-03-23T09:55:11;19.58;;;14.10;;
8319;SDS011;4197;42.130;24.746;2023-03-23T09:57:43;18.70;;;13.40;;
8319;SDS011;4197;42.130;24.746;2023-03-23T10:00:19;16.38;;;12.95;;
8319;SDS011;4197;42.130;24.746;2023-03-23T10:02:52;17.25;;;12.80;;
8319;SDS011;4197;42.130;24.746;2023-03-23T10:05:29;18.55;;;12.70;;
8319;SDS011;4197;42.130;24.746;2023-03-23T10:08:00;20.65;;;13.60;;
8319;SDS011;4197;42.130;24.746;2023-03-23T10:10:36;12.07;;;9.27;;
8319;SDS011;4197;42.130;24.746;2023-03-23T10:13:11;11.23;;;8.98;;
8319;SDS011;4197;42.130;24.746;2023-03-23T10:15:46;11.38;;;9.52;;
8319;SDS011;4197;42.130;24.746;2023-03-23T10:18:16;14.60;;;10.52;;
8319;SDS011;4197;42.130;24.746;2023-03-23T10:20:48;14.23;;;10.00;;
8319;SDS011;4197;42.130;24.746;2023-03-23T10:26:21;8.80;;;7.28;;
8319;SDS011;4197;42.130;24.746;2023-03-23T10:28:56;10.27;;;7.05;;
8319;SDS011;4197;42.130;24.746;2023-03-23T10:31:27;9.23;;;6.60;;
8319;SDS011;4197;42.130;24.746;2023-03-23T10:34:01;13.15;;;7.10;;
8319;SDS011;4197;42.130;24.746;2023-03-23T10:36:34;7.28;;;6.03;;
8319;SDS011;4197;42.130;24.746;2023-03-23T10:39:06;8.55;;;7.65;;
8319;SDS011;4197;42.130;24.746;2023-03-23T10:41:39;8.23;;;6.93;;
8319;SDS011;4197;42.130;24.746;2023-03-23T10:44:09;12.20;;;7.90;;
8319;SDS011;4197;42.130;24.746;2023-03-23T10:46:39;9.57;;;7.53;;
8319;SDS011;4197;42.130;24.746;2023-03-23T10:49:13;9.52;;;6.95;;
8319;SDS011;4197;42.130;24.746;2023-03-23T10:51:46;8.18;;;7.18;;
8319;SDS011;4197;42.130;24.746;2023-03-23T10:54:26;13.43;;;7.68;;
8319;SDS011;4197;42.130;24.746;2023-03-23T10:56:58;9.30;;;7.65;;
8319;SDS011;4197;42.130;24.746;2023-03-23T10:59:27;10.75;;;8.23;;
8319;SDS011;4197;42.130;24.746;2023-03-23T11:01:57;11.18;;;8.40;;
8319;SDS011;4197;42.130;24.746;2023-03-23T11:04:28;13.20;;;8.32;;
8319;SDS011;4197;42.130;24.746;2023-03-23T11:06:58;10.82;;;8.77;;
8319;SDS011;4197;42.130;24.746;2023-03-23T11:09:35;11.40;;;8.70;;
8319;SDS011;4197;42.130;24.746;2023-03-23T11:12:04;11.48;;;9.18;;
8319;SDS011;4197;42.130;24.746;2023-03-23T11:14:32;11.70;;;8.68;;
8319;SDS011;4197;42.130;24.746;2023-03-23T11:17:04;9.93;;;8.82;;
8319;SDS011;4197;42.130;24.746;2023-03-23T11:19:46;7.53;;;6.53;;
8319;SDS011;4197;42.130;24.746;2023-03-23T11:22:16;6.20;;;5.38;;
8319;SDS011;4197;42.130;24.746;2023-03-23T11:24:50;6.28;;;5.65;;
8319;SDS011;4197;42.130;24.746;2023-03-23T11:27:20;7.72;;;5.38;;
8319;SDS011;4197;42.130;24.746;2023-03-23T11:29:49;6.13;;;4.85;;
8319;SDS011;4197;42.130;24.746;2023-03-23T11:32:18;7.07;;;4.82;;
8319;SDS011;4197;42.130;24.746;2023-03-23T11:34:53;6.35;;;4.60;;
8319;SDS011;4197;42.130;24.746;2023-03-23T11:37:24;5.45;;;4.80;;
8319;SDS011;4197;42.130;24.746;2023-03-23T11:39:58;9.15;;;6.00;;
8319;SDS011;4197;42.130;24.746;2023-03-23T11:42:34;6.80;;;5.25;;
8319;SDS011;4197;42.130;24.746;2023-03-23T11:45:15;8.50;;;6.05;;
8319;SDS011;4197;42.130;24.746;2023-03-23T11:47:49;7.40;;;6.13;;
8319;SDS011;4197;42.130;24.746;2023-03-23T11:50:24;6.38;;;5.40;;
8319;SDS011;4197;42.130;24.746;2023-03-23T11:52:57;7.68;;;5.72;;
8319;SDS011;4197;42.130;24.746;2023-03-23T11:55:32;8.23;;;7.35;;
8319;SDS011;4197;42.130;24.746;2023-03-23T11:58:07;10.23;;;7.20;;
8319;SDS011;4197;42.130;24.746;2023-03-23T12:00:40;11.90;;;8.65;;
8319;SDS011;4197;42.130;24.746;2023-03-23T12:03:15;10.60;;;8.77;;
8319;SDS011;4197;42.130;24.746;2023-03-23T12:06:00;14.35;;;10.05;;
8319;SDS011;4197;42.130;24.746;2023-03-23T12:08:38;11.38;;;9.55;;
8319;SDS011;4197;42.130;24.746;2023-03-23T12:11:20;13.93;;;9.85;;
8319;SDS011;4197;42.130;24.746;2023-03-23T12:13:55;12.23;;;9.40;;
8319;SDS011;4197;42.130;24.746;2023-03-23T12:16:37;13.75;;;10.15;;
8319;SDS011;4197;42.130;24.746;2023-03-23T12:19:21;11.70;;;8.68;;
8319;SDS011;4197;42.130;24.746;2023-03-23T12:22:00;11.88;;;8.98;;
8319;SDS011;4197;42.130;24.746;2023-03-23T12:24:45;9.23;;;8.10;;
8319;SDS011;4197;42.130;24.746;2023-03-23T12:27:24;11.68;;;8.85;;
8319;SDS011;4197;42.130;24.746;2023-03-23T12:29:59;10.25;;;8.68;;
8319;SDS011;4197;42.130;24.746;2023-03-23T12:32:40;11.60;;;8.85;;
8319;SDS011;4197;42.130;24.746;2023-03-23T12:38:06;10.77;;;7.68;;
8319;SDS011;4197;42.130;24.746;2023-03-23T12:40:51;9.13;;;7.40;;
8319;SDS011;4197;42.130;24.746;2023-03-23T12:43:34;10.38;;;7.68;;
8319;SDS011;4197;42.130;24.746;2023-03-23T12:46:16;9.02;;;7.13;;
8319;SDS011;4197;42.130;24.746;2023-03-23T12:49:20;10.38;;;7.28;;
8319;SDS011;4197;42.130;24.746;2023-03-23T12:51:53;9.18;;;6.78;;
8319;SDS011;4197;42.130;24.746;2023-03-23T12:54:25;8.52;;;6.00;;
8319;SDS011;4197;42.130;24.746;2023-03-23T12:57:02;8.93;;;6.55;;
8319;SDS011;4197;42.130;24.746;2023-03-23T12:59:39;10.38;;;6.07;;
8319;SDS011;4197;42.130;24.746;2023-03-23T13:02:14;8.13;;;6.13;;
8319;SDS011;4197;42.130;24.746;2023-03-23T13:04:47;11.95;;;5.60;;
8319;SDS011;4197;42.130;24.746;2023-03-23T13:07:18;6.95;;;5.45;;
8319;SDS011;4197;42.130;24.746;2023-03-23T13:09:54;7.43;;;5.47;;
8319;SDS011;4197;42.130;24.746;2023-03-23T13:12:29;7.80;;;5.88;;
8319;SDS011;4197;42.130;24.746;2023-03-23T13:15:02;6.07;;;5.43;;
8319;SDS011;4197;42.130;24.746;2023-03-23T13:17:38;8.45;;;6.05;;
8319;SDS011;4197;42.130;24.746;2023-03-23T13:20:21;6.38;;;5.63;;
8319;SDS011;4197;42.130;24.746;2023-03-23T13:23:07;10.32;;;5.15;;
8319;SDS011;4197;42.130;24.746;2023-03-23T13:25:45;7.10;;;5.35;;
8319;SDS011;4197;42.130;24.746;2023-03-23T13:28:16;8.00;;;6.28;;
8319;SDS011;4197;42.130;24.746;2023-03-23T13:31:03;7.72;;;4.97;;
8319;SDS011;4197;42.130;24.746;2023-03-23T13:33:43;6.80;;;5.47;;
8319;SDS011;4197;42.130;24.746;2023-03-23T13:36:13;9.07;;;4.40;;
8319;SDS011;4197;42.130;24.746;2023-03-23T13:38:45;5.22;;;4.70;;
8319;SDS011;4197;42.130;24.746;2023-03-23T13:41:14;5.85;;;4.72;;
8319;SDS011;4197;42.130;24.746;2023-03-23T13:43:43;6.45;;;4.60;;
8319;SDS011;4197;42.130;24.746;2023-03-23T13:46:25;5.47;;;4.47;;
8319;SDS011;4197;42.130;24.746;2023-03-23T13:49:05;5.30;;;4.40;;
8319;SDS011;4197;42.130;24.746;2023-03-23T13:51:51;6.47;;;4.32;;
8319;SDS011;4197;42.130;24.746;2023-03-23T13:54:29;6.38;;;4.15;;
8319;SDS011;4197;42.130;24.746;2023-03-23T13:56:58;6.75;;;4.10;;
8319;SDS011;4197;42.130;24.746;2023-03-23T13:59:32;5.93;;;4.70;;
8319;SDS011;4197;42.130;24.746;2023-03-23T14:04:56;7.05;;;5.00;;
8319;SDS011;4197;42.130;24.746;2023-03-23T14:10:18;7.53;;;4.50;;
8319;SDS011;4197;42.130;24.746;2023-03-23T14:12:45;9.18;;;5.00;;
8319;SDS011;4197;42.130;24.746;2023-03-23T14:15:16;5.82;;;4.53;;
8319;SDS011;4197;42.130;24.746;2023-03-23T14:17:45;6.43;;;4.72;;
8319;SDS011;4197;42.130;24.746;2023-03-23T14:20:18;5.60;;;4.55;;
8319;SDS011;4197;42.130;24.746;2023-03-23T14:22:53;4.85;;;3.92;;
8319;SDS011;4197;42.130;24.746;2023-03-23T14:25:22;7.32;;;4.82;;
8319;SDS011;4197;42.130;24.746;2023-03-23T14:27:52;8.23;;;4.65;;
8319;SDS011;4197;42.130;24.746;2023-03-23T14:30:20;4.47;;;4.03;;
8319;SDS011;4197;42.130;24.746;2023-03-23T14:32:51;6.00;;;4.45;;
8319;SDS011;4197;42.130;24.746;2023-03-23T14:35:24;5.85;;;4.57;;
8319;SDS011;4197;42.130;24.746;2023-03-23T14:37:53;5.00;;;4.50;;
8319;SDS011;4197;42.130;24.746;2023-03-23T14:40:20;8.00;;;4.78;;
8319;SDS011;4197;42.130;24.746;2023-03-23T14:42:49;5.13;;;4.40;;
8319;SDS011;4197;42.130;24.746;2023-03-23T14:45:20;6.57;;;4.55;;
8319;SDS011;4197;42.130;24.746;2023-03-23T14:47:49;5.80;;;4.40;;
8319;SDS011;4197;42.130;24.746;2023-03-23T14:50:24;6.55;;;4.30;;
8319;SDS011;4197;42.130;24.746;2023-03-23T14:52:56;5.85;;;4.13;;
8319;SDS011;4197;42.130;24.746;2023-03-23T14:55:26;5.63;;;4.28;;
8319;SDS011;4197;42.130;24.746;2023-03-23T14:57:56;6.33;;;5.57;;
8319;SDS011;4197;42.130;24.746;2023-03-23T15:00:34;7.63;;;5.07;;
8319;SDS011;4197;42.130;24.746;2023-03-23T15:03:05;6.80;;;4.88;;
8319;SDS011;4197;42.130;24.746;2023-03-23T15:05:37;8.18;;;5.05;;
8319;SDS011;4197;42.130;24.746;2023-03-23T15:08:11;6.35;;;4.78;;
8319;SDS011;4197;42.130;24.746;2023-03-23T15:10:41;7.07;;;5.13;;
8319;SDS011;4197;42.130;24.746;2023-03-23T15:13:11;5.72;;;4.70;;
8319;SDS011;4197;42.130;24.746;2023-03-23T15:15:42;5.88;;;4.20;;
8319;SDS011;4197;42.130;24.746;2023-03-23T15:18:25;7.55;;;5.57;;
8319;SDS011;4197;42.130;24.746;2023-03-23T15:20:56;7.95;;;6.15;;
8319;SDS011;4197;42.130;24.746;2023-03-23T15:23:26;9.30;;;5.68;;